createdAt,value
2023-10-14T00:02:22.207Z,18.50
2023-10-14T00:04:54.231Z,18.50
2023-10-14T00:07:25.778Z,18.40
2023-10-14T00:09:53.510Z,18.30
2023-10-14T00:12:21.316Z,18.20
2023-10-14T00:14:50.706Z,18.00
2023-10-14T00:17:19.186Z,17.90
2023-10-14T00:19:57.538Z,17.80
2023-10-14T00:22:27.345Z,17.70
2023-10-14T00:24:54.896Z,17.60
2023-10-14T00:27:23.187Z,17.60
2023-10-14T00:29:52.214Z,17.50
2023-10-14T00:32:18.965Z,17.50
2023-10-14T00:34:46.328Z,17.50
2023-10-14T00:37:13.934Z,17.40
2023-10-14T00:39:41.333Z,17.40
2023-10-14T00:42:09.601Z,17.40
2023-10-14T00:44:39.895Z,17.40
2023-10-14T00:47:08.369Z,17.40
2023-10-14T00:49:36.576Z,17.40
2023-10-14T00:52:20.438Z,17.40
2023-10-14T00:55:14.142Z,17.30
2023-10-14T00:57:41.145Z,17.40
2023-10-14T01:00:13.064Z,17.30
2023-10-14T01:02:40.048Z,17.30
2023-10-14T01:05:15.878Z,17.30
2023-10-14T01:07:42.616Z,17.30
2023-10-14T01:10:13.957Z,16.90
2023-10-14T01:12:54.682Z,16.40
2023-10-14T01:15:23.322Z,16.00
2023-10-14T01:17:55.141Z,15.50
2023-10-14T01:20:22.887Z,15.20
2023-10-14T01:22:58.110Z,15.00
2023-10-14T01:25:34.122Z,14.90
2023-10-14T01:28:07.672Z,14.80
2023-10-14T01:30:39.503Z,14.70
2023-10-14T01:33:17.927Z,14.60
2023-10-14T01:35:53.095Z,14.60
2023-10-14T01:38:19.895Z,14.60
2023-10-14T01:40:56.189Z,14.40
2023-10-14T01:43:25.867Z,14.40
2023-10-14T01:45:56.256Z,14.40
2023-10-14T01:48:26.182Z,14.40
2023-10-14T01:50:57.504Z,14.30
2023-10-14T01:53:29.082Z,14.30
2023-10-14T01:56:02.494Z,14.20
2023-10-14T01:58:31.141Z,14.20
2023-10-14T02:01:17.695Z,14.20
2023-10-14T02:03:48.595Z,14.20
2023-10-14T02:06:18.996Z,14.20
2023-10-14T02:08:53.669Z,14.10
2023-10-14T02:11:23.151Z,14.10
2023-10-14T02:13:54.022Z,14.10
2023-10-14T02:16:40.412Z,14.10
2023-10-14T02:19:22.201Z,14.10
2023-10-14T02:22:01.943Z,14.00
2023-10-14T02:24:29.193Z,14.00
2023-10-14T02:27:14.045Z,14.00
2023-10-14T02:29:46.279Z,14.10
2023-10-14T02:32:14.609Z,14.10
2023-10-14T02:34:45.094Z,14.10
2023-10-14T02:37:16.316Z,14.10
2023-10-14T02:39:49.034Z,14.10
2023-10-14T02:42:17.088Z,14.00
2023-10-14T02:44:45.849Z,14.00
2023-10-14T02:47:14.787Z,14.00
2023-10-14T02:49:41.933Z,14.00
2023-10-14T02:52:37.316Z,13.90
2023-10-14T02:55:27.286Z,13.70
2023-10-14T03:06:06.989Z,13.30
2023-10-14T03:08:36.215Z,13.20
2023-10-14T03:11:16.947Z,13.00
2023-10-14T03:13:46.178Z,12.80
2023-10-14T03:16:18.218Z,12.70
2023-10-14T03:23:33.379Z,12.60
2023-10-14T03:33:53.361Z,12.50
2023-10-14T03:36:55.537Z,12.50
2023-10-14T03:39:44.737Z,12.50
2023-10-14T03:42:15.107Z,12.50
2023-10-14T03:44:43.477Z,12.60
2023-10-14T03:47:18.373Z,12.50
2023-10-14T03:49:57.955Z,12.50
2023-10-14T03:52:31.684Z,12.50
2023-10-14T03:54:59.847Z,12.50
2023-10-14T03:57:35.781Z,12.50
2023-10-14T04:00:14.150Z,12.50
2023-10-14T04:02:41.543Z,12.50
2023-10-14T04:05:12.306Z,12.50
2023-10-14T04:07:41.868Z,12.50
2023-10-14T04:10:11.390Z,12.50
2023-10-14T04:12:39.318Z,12.50
2023-10-14T04:15:13.625Z,12.40
2023-10-14T04:17:41.118Z,12.40
2023-10-14T04:20:12.222Z,12.40
2023-10-14T04:22:42.387Z,12.40
2023-10-14T04:25:22.840Z,12.30
2023-10-14T04:27:51.344Z,12.30
2023-10-14T04:30:30.953Z,12.20
2023-10-14T04:32:58.363Z,12.10
2023-10-14T04:35:26.958Z,12.00
2023-10-14T04:37:55.520Z,11.90
2023-10-14T04:40:39.251Z,11.80
2023-10-14T04:43:26.302Z,11.70
2023-10-14T04:45:54.340Z,11.60
2023-10-14T04:48:29.297Z,11.60
2023-10-14T04:51:01.519Z,11.50
2023-10-14T04:53:28.290Z,11.40
2023-10-14T04:55:55.811Z,11.40
2023-10-14T04:58:27.465Z,11.40
2023-10-14T05:01:02.473Z,11.30
2023-10-14T05:03:33.306Z,11.20
2023-10-14T05:06:09.530Z,11.20
2023-10-14T05:08:56.442Z,11.10
2023-10-14T05:11:27.104Z,11.10
2023-10-14T05:14:15.272Z,11.00
2023-10-14T05:16:57.016Z,11.00
2023-10-14T05:19:26.067Z,10.90
2023-10-14T05:22:14.968Z,10.90
2023-10-14T05:24:49.648Z,10.90
2023-10-14T05:27:21.252Z,10.80
2023-10-14T05:29:55.900Z,10.80
2023-10-14T05:32:32.703Z,10.70
2023-10-14T05:35:00.318Z,10.80
2023-10-14T05:37:27.801Z,10.70
2023-10-14T05:39:56.287Z,10.70
2023-10-14T05:42:24.051Z,10.60
2023-10-14T05:44:58.880Z,10.60
2023-10-14T05:47:29.028Z,10.60
2023-10-14T05:49:56.116Z,10.60
2023-10-14T05:52:25.223Z,10.50
2023-10-14T05:54:52.971Z,10.50
2023-10-14T05:57:21.131Z,10.50
2023-10-14T05:59:50.205Z,10.50
2023-10-14T06:02:17.044Z,10.50
2023-10-14T06:04:44.568Z,10.50
2023-10-14T06:07:12.653Z,10.50
2023-10-14T06:09:41.764Z,10.40
2023-10-14T06:12:13.832Z,10.50
2023-10-14T06:14:46.223Z,10.40
2023-10-14T06:17:13.587Z,10.50
2023-10-14T06:19:41.201Z,10.50
2023-10-14T06:22:08.950Z,10.50
2023-10-14T06:24:37.012Z,10.50
2023-10-14T06:27:10.176Z,10.60
2023-10-14T06:29:38.603Z,10.60
2023-10-14T06:32:20.179Z,10.70
2023-10-14T06:35:00.020Z,10.70
2023-10-14T06:37:27.491Z,10.70
2023-10-14T06:39:58.965Z,10.70
2023-10-14T06:42:27.666Z,10.80
2023-10-14T06:44:54.981Z,10.80
2023-10-14T06:47:23.265Z,10.80
2023-10-14T06:49:52.562Z,10.90
2023-10-14T06:52:19.422Z,10.90
2023-10-14T06:54:48.835Z,11.00
2023-10-14T06:57:15.885Z,11.00
2023-10-14T06:59:43.188Z,11.10
2023-10-14T07:02:12.497Z,11.10
2023-10-14T07:04:40.060Z,11.20
2023-10-14T07:07:13.137Z,11.60
2023-10-14T07:09:45.442Z,12.60
2023-10-14T07:12:16.465Z,12.90
2023-10-14T07:14:45.537Z,12.80
2023-10-14T07:17:24.125Z,12.70
2023-10-14T07:19:51.326Z,12.50
2023-10-14T07:22:24.705Z,12.40
2023-10-14T07:24:53.177Z,12.40
2023-10-14T07:27:22.468Z,12.50
2023-10-14T07:29:49.268Z,12.80
2023-10-14T07:32:17.180Z,13.60
2023-10-14T07:34:44.109Z,13.50
2023-10-14T07:37:11.874Z,13.30
2023-10-14T07:39:38.673Z,13.00
2023-10-14T07:42:15.153Z,12.90
2023-10-14T07:44:42.018Z,12.90
2023-10-14T07:47:12.719Z,13.00
2023-10-14T07:49:39.589Z,12.90
2023-10-14T07:52:16.522Z,12.90
2023-10-14T07:54:43.998Z,13.00
2023-10-14T07:57:13.885Z,13.00
2023-10-14T07:59:40.717Z,13.60
2023-10-14T08:02:09.455Z,14.00
2023-10-14T08:04:36.435Z,14.10
2023-10-14T08:07:08.124Z,14.10
2023-10-14T08:09:40.154Z,14.30
2023-10-14T08:12:07.700Z,14.40
2023-10-14T08:14:34.424Z,14.50
2023-10-14T08:17:01.891Z,14.50
2023-10-14T08:19:28.792Z,14.60
2023-10-14T08:21:57.045Z,14.70
2023-10-14T08:24:23.830Z,14.40
2023-10-14T08:26:51.558Z,14.30
2023-10-14T08:29:21.497Z,14.00
2023-10-14T08:31:55.427Z,13.80
2023-10-14T08:34:25.335Z,13.80
2023-10-14T08:36:52.646Z,13.90
2023-10-14T08:39:26.028Z,14.00
2023-10-14T08:41:58.528Z,14.60
2023-10-14T08:44:32.797Z,15.10
2023-10-14T08:47:01.736Z,15.50
2023-10-14T08:49:30.741Z,15.80
2023-10-14T08:51:59.977Z,15.90
2023-10-14T08:54:26.997Z,16.10
2023-10-14T08:56:54.734Z,16.20
2023-10-14T08:59:23.917Z,16.30
2023-10-14T09:01:57.362Z,16.30
2023-10-14T09:04:32.512Z,16.10
2023-10-14T09:07:03.730Z,16.00
2023-10-14T09:09:34.144Z,15.90
2023-10-14T09:12:12.845Z,15.80
2023-10-14T09:14:42.332Z,15.60
2023-10-14T09:17:13.200Z,15.30
2023-10-14T09:19:49.066Z,15.00
2023-10-14T09:22:24.858Z,14.80
2023-10-14T09:25:00.138Z,14.60
2023-10-14T09:27:28.062Z,14.60
2023-10-14T09:30:00.691Z,14.50
2023-10-14T09:32:29.578Z,14.50
2023-10-14T09:34:58.139Z,14.60
2023-10-14T09:37:25.758Z,14.60
2023-10-14T09:40:04.029Z,14.60
2023-10-14T09:42:32.629Z,14.60
2023-10-14T09:45:06.836Z,14.50
2023-10-14T09:47:34.322Z,14.30
2023-10-14T09:50:01.049Z,14.20
2023-10-14T09:52:28.960Z,14.20
2023-10-14T09:54:56.474Z,14.30
2023-10-14T09:57:24.206Z,14.40
2023-10-14T09:59:53.805Z,14.60
2023-10-14T10:02:20.877Z,14.90
2023-10-14T10:04:49.784Z,15.10
2023-10-14T10:07:23.112Z,15.30
2023-10-14T10:09:54.405Z,15.30
2023-10-14T10:12:21.982Z,15.40
2023-10-14T10:14:49.430Z,15.40
2023-10-14T10:17:16.869Z,15.30
2023-10-14T10:20:01.597Z,15.20
2023-10-14T10:22:40.411Z,15.00
2023-10-14T10:25:11.139Z,15.10
2023-10-14T10:27:38.105Z,15.30
2023-10-14T10:30:12.820Z,15.40
2023-10-14T10:32:39.674Z,15.50
2023-10-14T10:35:07.052Z,15.70
2023-10-14T10:37:37.414Z,15.80
2023-10-14T10:40:12.170Z,16.00
2023-10-14T10:42:42.788Z,16.00
2023-10-14T10:45:15.563Z,15.80
2023-10-14T10:47:46.535Z,15.90
2023-10-14T10:50:16.952Z,16.00
2023-10-14T10:52:52.525Z,16.10
2023-10-14T10:55:20.480Z,16.00
2023-10-14T10:57:47.481Z,16.00
2023-10-14T11:00:19.259Z,16.00
2023-10-14T11:02:46.077Z,16.30
2023-10-14T11:05:13.500Z,16.40
2023-10-14T11:07:40.759Z,16.40
2023-10-14T11:10:07.620Z,16.30
2023-10-14T11:12:36.331Z,16.10
2023-10-14T11:15:02.988Z,16.00
2023-10-14T11:17:30.399Z,16.00
2023-10-14T11:19:57.196Z,15.90
2023-10-14T11:22:25.421Z,15.70
2023-10-14T11:24:53.737Z,15.50
2023-10-14T11:27:21.733Z,15.30
2023-10-14T11:29:48.476Z,15.10
2023-10-14T11:32:16.608Z,15.00
2023-10-14T11:34:48.411Z,14.80
2023-10-14T11:37:17.586Z,14.70
2023-10-14T11:39:44.262Z,14.60
2023-10-14T11:42:11.735Z,14.60
2023-10-14T11:44:38.383Z,14.70
2023-10-14T11:47:09.108Z,14.90
2023-10-14T11:49:36.271Z,14.90
2023-10-14T11:52:06.098Z,15.00
2023-10-14T11:54:32.888Z,15.20
2023-10-14T11:57:00.172Z,15.50
2023-10-14T11:59:26.760Z,15.60
2023-10-14T12:01:54.125Z,15.60
2023-10-14T12:04:21.038Z,15.40
2023-10-14T12:06:48.537Z,15.40
2023-10-14T12:09:15.291Z,15.40
2023-10-14T12:11:45.979Z,15.70
2023-10-14T12:14:13.125Z,16.00
2023-10-14T12:16:44.516Z,16.30
2023-10-14T12:19:15.529Z,16.60
2023-10-14T12:21:43.669Z,16.70
2023-10-14T12:24:10.792Z,16.60
2023-10-14T12:26:48.119Z,16.50
2023-10-14T12:29:14.960Z,16.40
2023-10-14T12:31:46.309Z,16.30
2023-10-14T12:34:15.981Z,16.00
2023-10-14T12:36:44.071Z,15.60
2023-10-14T12:39:34.589Z,15.30
2023-10-14T12:42:04.891Z,15.00
2023-10-14T12:44:34.879Z,14.70
2023-10-14T12:47:25.421Z,14.60
2023-10-14T12:49:53.033Z,14.70
2023-10-14T12:52:20.906Z,14.90
2023-10-14T12:54:53.031Z,15.00
2023-10-14T12:57:20.573Z,15.20
2023-10-14T12:59:48.220Z,15.30
2023-10-14T13:02:18.349Z,15.40
2023-10-14T13:04:46.402Z,15.50
2023-10-14T13:07:13.563Z,15.50
2023-10-14T13:09:41.251Z,15.50
2023-10-14T13:12:18.009Z,15.60
2023-10-14T13:14:46.008Z,15.60
2023-10-14T13:17:12.805Z,15.50
2023-10-14T13:19:42.567Z,15.50
2023-10-14T13:22:14.633Z,15.10
2023-10-14T13:24:42.454Z,14.90
2023-10-14T13:27:09.215Z,14.80
2023-10-14T13:29:42.617Z,14.60
2023-10-14T13:32:15.253Z,14.80
2023-10-14T13:34:42.101Z,15.10
2023-10-14T13:37:10.146Z,15.30
2023-10-14T13:39:37.464Z,15.50
2023-10-14T13:42:04.936Z,15.60
2023-10-14T13:44:32.239Z,15.60
2023-10-14T13:46:59.042Z,15.50
2023-10-14T13:49:27.064Z,15.50
2023-10-14T13:51:54.197Z,15.50
2023-10-14T13:54:21.485Z,15.50
2023-10-14T13:56:48.293Z,15.30
2023-10-14T13:59:15.790Z,15.20
2023-10-14T14:01:42.618Z,15.00
2023-10-14T14:04:12.395Z,14.90
2023-10-14T14:06:39.366Z,14.80
2023-10-14T14:09:06.508Z,14.60
2023-10-14T14:11:33.871Z,14.60
2023-10-14T14:14:00.995Z,14.50
2023-10-14T14:16:28.736Z,14.50
2023-10-14T14:18:55.647Z,14.50
2023-10-14T14:21:22.948Z,14.40
2023-10-14T14:23:49.567Z,14.40
2023-10-14T14:26:22.899Z,14.40
2023-10-14T14:28:52.502Z,14.40
2023-10-14T14:31:20.889Z,14.30
2023-10-14T14:33:48.501Z,14.20
2023-10-14T14:36:15.930Z,14.20
2023-10-14T14:38:42.677Z,14.10
2023-10-14T14:41:10.999Z,14.00
2023-10-14T14:43:38.826Z,13.90
2023-10-14T14:46:10.152Z,13.70
2023-10-14T14:48:37.165Z,13.60
2023-10-14T14:51:05.419Z,13.40
2023-10-14T14:53:32.401Z,13.40
2023-10-14T14:56:00.874Z,13.40
2023-10-14T14:58:27.673Z,13.40
2023-10-14T15:00:55.033Z,13.40
2023-10-14T15:03:21.741Z,13.50
2023-10-14T15:05:52.217Z,13.50
2023-10-14T15:08:19.424Z,13.60
2023-10-14T15:10:47.131Z,13.60
2023-10-14T15:13:16.346Z,13.50
2023-10-14T15:15:43.393Z,13.30
2023-10-14T15:18:11.615Z,13.20
2023-10-14T15:20:38.789Z,13.00
2023-10-14T15:23:07.391Z,12.90
2023-10-14T15:25:40.133Z,12.80
2023-10-14T15:28:12.971Z,12.70
2023-10-14T15:30:42.246Z,12.70
2023-10-14T15:33:10.853Z,12.70
2023-10-14T15:35:37.802Z,12.80
2023-10-14T15:38:06.274Z,12.80
2023-10-14T15:40:33.841Z,12.80
2023-10-14T15:43:02.027Z,12.80
2023-10-14T15:45:30.246Z,12.70
2023-10-14T15:47:58.660Z,12.60
2023-10-14T15:50:26.052Z,12.40
2023-10-14T15:52:56.751Z,12.30
2023-10-14T15:55:25.079Z,12.20
2023-10-14T15:57:58.601Z,12.10
2023-10-14T16:00:32.429Z,12.00
2023-10-14T16:03:11.538Z,11.90
2023-10-14T16:05:39.425Z,11.80
2023-10-14T16:08:07.563Z,11.70
2023-10-14T16:10:35.885Z,11.70
2023-10-14T16:13:07.964Z,11.60
2023-10-14T16:15:36.027Z,11.50
2023-10-14T16:18:04.157Z,11.40
2023-10-14T16:20:31.186Z,11.40
2023-10-14T16:22:59.906Z,11.40
2023-10-14T16:25:26.617Z,11.40
2023-10-14T16:27:54.374Z,11.30
2023-10-14T16:30:22.055Z,11.20
2023-10-14T16:32:50.154Z,11.30
2023-10-14T16:35:21.010Z,11.20
2023-10-14T16:37:49.127Z,11.20
2023-10-14T16:40:24.841Z,11.10
2023-10-14T16:42:52.980Z,11.00
2023-10-14T16:45:20.431Z,11.00
2023-10-14T16:47:54.892Z,11.00
2023-10-14T16:50:25.650Z,11.00
2023-10-14T16:52:53.907Z,10.90
2023-10-14T16:55:21.559Z,10.80
2023-10-14T16:57:49.219Z,10.70
2023-10-14T17:00:23.437Z,10.70
2023-10-14T17:02:54.452Z,10.60
2023-10-14T17:05:24.855Z,10.70
2023-10-14T17:07:54.471Z,10.70
2023-10-14T17:10:27.132Z,10.80
2023-10-14T17:12:57.906Z,10.80
2023-10-14T17:15:29.659Z,10.90
2023-10-14T17:17:57.426Z,10.90
2023-10-14T17:20:24.832Z,10.90
2023-10-14T17:22:55.251Z,10.90
2023-10-14T17:25:23.077Z,10.90
2023-10-14T17:27:50.102Z,10.80
2023-10-14T17:30:17.540Z,10.80
2023-10-14T17:32:45.131Z,10.70
2023-10-14T17:35:15.550Z,10.60
2023-10-14T17:37:44.424Z,10.50
2023-10-14T17:40:15.836Z,10.50
2023-10-14T17:42:43.553Z,10.40
2023-10-14T17:45:14.726Z,10.40
2023-10-14T17:47:44.380Z,10.30
2023-10-14T17:50:11.870Z,10.30
2023-10-14T17:52:40.159Z,10.40
2023-10-14T17:55:14.107Z,10.40
2023-10-14T17:57:42.667Z,10.50
2023-10-14T18:00:10.840Z,10.50
2023-10-14T18:02:40.671Z,10.50
2023-10-14T18:05:09.307Z,10.50
2023-10-14T18:07:38.843Z,10.50
2023-10-14T18:10:07.907Z,10.40
2023-10-14T18:12:38.923Z,10.30
2023-10-14T18:15:14.219Z,10.20
2023-10-14T18:17:45.591Z,10.20
2023-10-14T18:20:17.099Z,10.10
2023-10-14T18:22:44.676Z,10.00
2023-10-14T18:25:17.065Z,9.90
2023-10-14T18:27:46.458Z,9.80
2023-10-14T18:30:22.340Z,9.70
2023-10-14T18:32:54.941Z,9.60
2023-10-14T18:35:23.004Z,9.60
2023-10-14T18:37:50.041Z,9.60
2023-10-14T18:40:18.576Z,9.50
2023-10-14T18:42:46.652Z,9.40
2023-10-14T18:45:21.660Z,9.30
2023-10-14T18:47:55.127Z,9.30
2023-10-14T18:50:30.552Z,9.20
2023-10-14T18:52:58.349Z,9.10
2023-10-14T18:55:28.760Z,9.10
2023-10-14T18:57:56.249Z,9.10
2023-10-14T19:00:24.389Z,9.10
2023-10-14T19:02:56.782Z,9.10
2023-10-14T19:05:27.902Z,9.00
2023-10-14T19:07:57.019Z,9.00
2023-10-14T19:10:24.887Z,8.90
2023-10-14T19:12:54.512Z,8.90
2023-10-14T19:15:24.414Z,8.90
2023-10-14T19:17:51.601Z,8.80
2023-10-14T19:20:18.451Z,8.80
2023-10-14T19:23:07.286Z,8.70
2023-10-14T19:25:34.926Z,8.70
2023-10-14T19:28:02.085Z,8.60
2023-10-14T19:30:28.859Z,8.50
2023-10-14T19:32:55.534Z,8.50
2023-10-14T19:35:22.172Z,8.50
2023-10-14T19:37:52.439Z,8.50
2023-10-14T19:40:20.957Z,8.50
2023-10-14T19:42:48.317Z,8.40
2023-10-14T19:45:17.391Z,8.40
2023-10-14T19:47:47.829Z,8.40
2023-10-14T19:50:16.564Z,8.40
2023-10-14T19:52:44.235Z,8.30
2023-10-14T19:55:24.360Z,8.30
2023-10-14T19:58:04.373Z,8.30
2023-10-14T20:00:36.521Z,8.30
2023-10-14T20:03:04.571Z,8.30
2023-10-14T20:05:36.793Z,8.30
2023-10-14T20:08:05.520Z,8.30
2023-10-14T20:10:41.552Z,8.30
2023-10-14T20:13:11.140Z,8.20
2023-10-14T20:15:38.476Z,8.20
2023-10-14T20:18:06.049Z,8.20
2023-10-14T20:20:32.726Z,8.10
2023-10-14T20:23:00.055Z,8.20
2023-10-14T20:25:28.320Z,8.10
2023-10-14T20:27:56.292Z,8.10
2023-10-14T20:30:27.694Z,8.10
2023-10-14T20:32:56.055Z,8.10
2023-10-14T20:35:23.644Z,8.10
2023-10-14T20:38:00.657Z,8.00
2023-10-14T20:40:31.341Z,8.00
2023-10-14T20:43:01.350Z,8.00
2023-10-14T20:45:29.588Z,8.00
2023-10-14T20:48:00.677Z,7.90
2023-10-14T20:50:29.496Z,7.90
2023-10-14T20:52:58.888Z,7.90
2023-10-14T20:55:29.758Z,7.90
2023-10-14T20:57:57.679Z,7.80
2023-10-14T21:00:32.762Z,7.80
2023-10-14T21:03:09.391Z,7.80
2023-10-14T21:05:40.745Z,7.70
2023-10-14T21:08:14.306Z,7.80
2023-10-14T21:10:45.060Z,7.70
2023-10-14T21:13:12.858Z,7.70
2023-10-14T21:15:39.920Z,7.70
2023-10-14T21:18:08.201Z,7.60
2023-10-14T21:20:42.444Z,7.60
2023-10-14T21:23:10.339Z,7.60
2023-10-14T21:25:37.509Z,7.60
2023-10-14T21:28:07.677Z,7.60
2023-10-14T21:30:37.865Z,7.60
2023-10-14T21:33:07.695Z,7.60
2023-10-14T21:35:36.381Z,7.60
2023-10-14T21:38:03.465Z,7.50
2023-10-14T21:40:31.789Z,7.50
2023-10-14T21:42:59.200Z,7.40
2023-10-14T21:45:30.090Z,7.40
2023-10-14T21:47:56.991Z,7.40
2023-10-14T21:50:28.710Z,7.40
2023-10-14T21:52:55.373Z,7.40
2023-10-14T21:55:23.454Z,7.40
2023-10-14T21:57:50.613Z,7.40
2023-10-14T22:00:29.487Z,7.40
2023-10-14T22:02:56.432Z,7.30
2023-10-14T22:05:24.197Z,7.30
2023-10-14T22:07:50.843Z,7.30
2023-10-14T22:10:20.682Z,7.20
2023-10-14T22:12:47.974Z,7.20
2023-10-14T22:15:16.955Z,7.20
2023-10-14T22:17:44.543Z,7.20
2023-10-14T22:20:16.948Z,7.30
2023-10-14T22:22:44.563Z,7.30
2023-10-14T22:25:13.698Z,7.20
2023-10-14T22:27:43.411Z,7.20
2023-10-14T22:30:11.062Z,7.20
2023-10-14T22:32:39.961Z,7.20
2023-10-14T22:35:07.537Z,7.20
2023-10-14T22:37:37.293Z,7.10
2023-10-14T22:40:05.362Z,7.00
2023-10-14T22:42:32.144Z,7.00
2023-10-14T22:44:59.622Z,7.00
2023-10-14T22:47:26.458Z,7.00
2023-10-14T22:49:53.657Z,7.00
2023-10-14T22:52:21.460Z,7.00
2023-10-14T22:54:49.756Z,6.90
2023-10-14T22:57:17.037Z,6.90
2023-10-14T22:59:44.531Z,6.90
2023-10-14T23:02:11.955Z,6.90
2023-10-14T23:04:38.632Z,6.90
2023-10-14T23:07:06.959Z,6.90
2023-10-14T23:09:34.515Z,6.90
2023-10-14T23:12:01.809Z,6.90
2023-10-14T23:14:29.948Z,6.80
2023-10-14T23:16:58.933Z,6.80
2023-10-14T23:19:25.653Z,6.80
2023-10-14T23:21:53.735Z,6.70
2023-10-14T23:24:20.510Z,6.70
2023-10-14T23:26:47.950Z,6.70
2023-10-14T23:29:14.572Z,6.70
2023-10-14T23:31:42.104Z,6.80
2023-10-14T23:34:08.706Z,6.70
2023-10-14T23:36:36.510Z,6.70
2023-10-14T23:39:05.006Z,6.70
2023-10-14T23:41:32.307Z,6.60
2023-10-14T23:43:58.939Z,6.60
2023-10-14T23:46:26.292Z,6.60
2023-10-14T23:48:53.045Z,6.60
2023-10-14T23:51:20.281Z,6.50
2023-10-14T23:53:46.870Z,6.60
2023-10-14T23:56:14.745Z,6.60
2023-10-14T23:58:42.228Z,6.50
